createdAt,value
2022-11-23T00:01:32.958Z,100.00
2022-11-23T00:04:05.192Z,100.00
2022-11-23T00:06:32.882Z,100.00
2022-11-23T00:09:00.350Z,100.00
2022-11-23T00:11:28.434Z,100.00
2022-11-23T00:13:56.300Z,100.00
2022-11-23T00:16:27.060Z,100.00
2022-11-23T00:18:59.761Z,100.00
2022-11-23T00:21:29.563Z,100.00
2022-11-23T00:23:56.568Z,100.00
2022-11-23T00:26:23.653Z,100.00
2022-11-23T00:28:50.600Z,100.00
2022-11-23T00:31:20.405Z,100.00
2022-11-23T00:33:52.280Z,100.00
2022-11-23T00:36:20.082Z,100.00
2022-11-23T00:38:48.191Z,100.00
2022-11-23T00:41:19.396Z,100.00
2022-11-23T00:43:47.729Z,100.00
2022-11-23T00:46:28.569Z,100.00
2022-11-23T00:48:57.494Z,100.00
2022-11-23T00:51:32.020Z,100.00
2022-11-23T00:54:00.518Z,100.00
2022-11-23T00:56:29.351Z,100.00
2022-11-23T00:58:58.424Z,100.00
2022-11-23T01:01:29.287Z,100.00
2022-11-23T01:03:58.787Z,100.00
2022-11-23T01:06:28.967Z,100.00
2022-11-23T01:09:06.558Z,100.00
2022-11-23T01:11:34.181Z,100.00
2022-11-23T01:14:01.293Z,100.00
2022-11-23T01:16:34.891Z,100.00
2022-11-23T01:19:08.782Z,100.00
2022-11-23T01:21:37.148Z,100.00
2022-11-23T01:24:16.235Z,100.00
2022-11-23T01:26:44.303Z,100.00
2022-11-23T01:29:12.320Z,100.00
2022-11-23T01:31:46.203Z,100.00
2022-11-23T01:34:14.904Z,100.00
2022-11-23T01:36:43.395Z,100.00
2022-11-23T01:39:12.259Z,100.00
2022-11-23T01:41:43.750Z,100.00
2022-11-23T01:44:31.442Z,100.00
2022-11-23T01:47:02.005Z,100.00
2022-11-23T01:49:52.137Z,100.00
2022-11-23T01:52:25.095Z,100.00
2022-11-23T01:54:58.094Z,100.00
2022-11-23T01:57:42.052Z,100.00
2022-11-23T02:00:09.870Z,100.00
2022-11-23T02:02:38.845Z,100.00
2022-11-23T02:05:06.519Z,100.00
2022-11-23T02:07:34.623Z,100.00
2022-11-23T02:10:02.110Z,100.00
2022-11-23T02:12:29.000Z,100.00
2022-11-23T02:14:56.227Z,100.00
2022-11-23T02:17:23.200Z,100.00
2022-11-23T02:20:12.066Z,100.00
2022-11-23T02:23:00.542Z,100.00
2022-11-23T02:25:45.464Z,100.00
2022-11-23T02:28:26.832Z,100.00
2022-11-23T02:30:55.495Z,100.00
2022-11-23T02:33:22.642Z,100.00
2022-11-23T02:35:58.430Z,100.00
2022-11-23T02:38:31.722Z,100.00
2022-11-23T02:40:58.959Z,100.00
2022-11-23T02:43:26.245Z,100.00
2022-11-23T02:46:01.991Z,100.00
2022-11-23T02:48:28.932Z,100.00
2022-11-23T02:50:55.914Z,100.00
2022-11-23T02:53:23.214Z,100.00
2022-11-23T02:55:50.150Z,100.00
2022-11-23T02:58:17.097Z,100.00
2022-11-23T03:00:44.081Z,100.00
2022-11-23T03:03:11.126Z,100.00
2022-11-23T03:05:38.484Z,100.00
2022-11-23T03:08:06.022Z,100.00
2022-11-23T03:10:32.983Z,100.00
2022-11-23T03:12:59.901Z,100.00
2022-11-23T03:15:26.890Z,100.00
2022-11-23T03:17:53.847Z,100.00
2022-11-23T03:20:21.050Z,100.00
2022-11-23T03:22:47.982Z,100.00
2022-11-23T03:25:15.329Z,100.00
2022-11-23T03:27:42.360Z,100.00
2022-11-23T03:30:10.344Z,100.00
2022-11-23T03:32:37.804Z,100.00
2022-11-23T03:35:06.177Z,100.00
2022-11-23T03:37:33.450Z,100.00
2022-11-23T03:40:00.393Z,100.00
2022-11-23T03:42:27.329Z,100.00
2022-11-23T03:44:54.279Z,100.00
2022-11-23T03:47:21.330Z,100.00
2022-11-23T03:49:48.500Z,100.00
2022-11-23T03:52:15.420Z,100.00
2022-11-23T03:54:42.354Z,100.00
2022-11-23T03:57:09.278Z,100.00
2022-11-23T03:59:36.251Z,100.00
2022-11-23T04:02:03.217Z,100.00
2022-11-23T04:04:30.154Z,100.00
2022-11-23T04:06:57.109Z,100.00
2022-11-23T04:09:24.116Z,100.00
2022-11-23T04:11:51.075Z,100.00
2022-11-23T04:14:18.168Z,100.00
2022-11-23T04:16:45.219Z,100.00
2022-11-23T04:19:12.154Z,100.00
2022-11-23T04:21:39.164Z,100.00
2022-11-23T04:24:06.610Z,100.00
2022-11-23T04:26:33.578Z,100.00
2022-11-23T04:29:00.497Z,100.00
2022-11-23T04:31:27.426Z,100.00
2022-11-23T04:33:57.192Z,100.00
2022-11-23T04:36:24.628Z,100.00
2022-11-23T04:38:51.550Z,100.00
2022-11-23T04:41:18.623Z,100.00
2022-11-23T04:43:48.732Z,100.00
2022-11-23T04:46:16.075Z,100.00
2022-11-23T04:48:42.997Z,100.00
2022-11-23T04:51:10.479Z,100.00
2022-11-23T04:53:37.510Z,100.00
2022-11-23T04:56:04.616Z,100.00
2022-11-23T04:58:34.496Z,100.00
2022-11-23T05:01:01.740Z,100.00
2022-11-23T05:03:28.730Z,100.00
2022-11-23T05:05:59.150Z,100.00
2022-11-23T05:08:26.089Z,100.00
2022-11-23T05:10:52.972Z,100.00
2022-11-23T05:13:20.112Z,100.00
2022-11-23T05:15:47.060Z,100.00
2022-11-23T05:18:14.033Z,100.00
2022-11-23T05:20:41.059Z,100.00
2022-11-23T05:23:08.258Z,100.00
2022-11-23T05:25:35.185Z,100.00
2022-11-23T05:28:16.715Z,100.00
2022-11-23T05:30:49.111Z,100.00
2022-11-23T05:33:16.069Z,100.00
2022-11-23T05:35:43.329Z,100.00
2022-11-23T05:38:10.257Z,100.00
2022-11-23T05:40:37.313Z,100.00
2022-11-23T05:43:04.363Z,100.00
2022-11-23T05:45:31.371Z,100.00
2022-11-23T05:47:59.522Z,100.00
2022-11-23T05:50:28.181Z,100.00
2022-11-23T05:53:00.128Z,100.00
2022-11-23T05:55:27.567Z,100.00
2022-11-23T05:57:54.830Z,100.00
2022-11-23T06:00:22.086Z,100.00
2022-11-23T06:02:49.060Z,100.00
2022-11-23T06:05:16.128Z,100.00
2022-11-23T06:07:43.149Z,100.00
2022-11-23T06:10:12.147Z,100.00
2022-11-23T06:12:39.046Z,100.00
2022-11-23T06:15:06.927Z,100.00
2022-11-23T06:17:33.853Z,100.00
2022-11-23T06:20:00.759Z,100.00
2022-11-23T06:22:27.713Z,100.00
2022-11-23T06:24:54.601Z,100.00
2022-11-23T06:27:21.500Z,100.00
2022-11-23T06:29:48.441Z,100.00
2022-11-23T06:32:15.934Z,100.00
2022-11-23T06:34:42.869Z,100.00
2022-11-23T06:37:10.106Z,100.00
2022-11-23T06:39:37.118Z,100.00
2022-11-23T06:42:30.969Z,100.00
2022-11-23T06:44:51.095Z,100.00
2022-11-23T06:47:21.904Z,100.00
2022-11-23T06:49:52.561Z,100.00
2022-11-23T06:52:19.516Z,100.00
2022-11-23T06:54:46.928Z,100.00
2022-11-23T06:57:13.908Z,100.00
2022-11-23T06:59:44.713Z,100.00
2022-11-23T07:02:12.891Z,100.00
2022-11-23T07:04:39.827Z,100.00
2022-11-23T07:07:09.920Z,100.00
2022-11-23T07:09:36.951Z,100.00
2022-11-23T07:12:04.108Z,100.00
2022-11-23T07:14:30.995Z,100.00
2022-11-23T07:16:57.943Z,100.00
2022-11-23T07:19:24.840Z,100.00
2022-11-23T07:21:51.788Z,100.00
2022-11-23T07:24:18.692Z,100.00
2022-11-23T07:26:45.645Z,100.00
2022-11-23T07:29:12.604Z,100.00
2022-11-23T07:31:39.561Z,100.00
2022-11-23T07:34:06.558Z,100.00
2022-11-23T07:36:33.496Z,100.00
2022-11-23T07:39:00.444Z,100.00
2022-11-23T07:41:27.646Z,100.00
2022-11-23T07:43:54.671Z,100.00
2022-11-23T07:46:22.236Z,100.00
2022-11-23T07:48:49.150Z,100.00
2022-11-23T07:51:16.690Z,100.00
2022-11-23T07:53:43.604Z,100.00
2022-11-23T07:56:10.479Z,100.00
2022-11-23T07:58:37.515Z,100.00
2022-11-23T08:01:04.582Z,100.00
2022-11-23T08:03:31.571Z,100.00
2022-11-23T08:05:58.603Z,100.00
2022-11-23T08:08:25.665Z,100.00
2022-11-23T08:10:54.256Z,100.00
2022-11-23T08:13:22.625Z,100.00
2022-11-23T08:15:54.891Z,100.00
2022-11-23T08:18:24.114Z,100.00
2022-11-23T08:20:51.098Z,100.00
2022-11-23T08:23:18.317Z,100.00
2022-11-23T08:25:45.525Z,100.00
2022-11-23T08:28:12.877Z,100.00
2022-11-23T08:30:40.147Z,100.00
2022-11-23T08:33:08.654Z,100.00
2022-11-23T08:35:37.842Z,100.00
2022-11-23T08:38:06.440Z,100.00
2022-11-23T08:40:34.165Z,100.00
2022-11-23T08:43:01.134Z,100.00
2022-11-23T08:45:28.296Z,100.00
2022-11-23T08:47:59.668Z,100.00
2022-11-23T08:50:26.591Z,100.00
2022-11-23T08:52:58.737Z,100.00
2022-11-23T08:55:27.498Z,100.00
2022-11-23T08:58:00.686Z,100.00
2022-11-23T09:00:28.843Z,100.00
2022-11-23T09:02:59.903Z,100.00
2022-11-23T09:05:28.849Z,100.00
2022-11-23T09:07:59.831Z,100.00
2022-11-23T09:10:27.220Z,100.00
2022-11-23T09:12:54.207Z,100.00
2022-11-23T09:15:21.438Z,100.00
2022-11-23T09:17:48.427Z,100.00
2022-11-23T09:20:15.683Z,100.00
2022-11-23T09:22:42.719Z,100.00
2022-11-23T09:25:10.445Z,100.00
2022-11-23T09:27:37.430Z,100.00
2022-11-23T09:30:05.608Z,100.00
2022-11-23T09:32:33.089Z,100.00
2022-11-23T09:35:00.024Z,100.00
2022-11-23T09:37:27.026Z,100.00
2022-11-23T09:39:53.926Z,100.00
2022-11-23T09:42:45.214Z,100.00
2022-11-23T09:45:26.022Z,100.00
2022-11-23T09:48:40.945Z,100.00
2022-11-23T09:51:20.670Z,100.00
2022-11-23T09:54:04.720Z,100.00
2022-11-23T09:56:35.237Z,100.00
2022-11-23T09:59:21.077Z,100.00
2022-11-23T10:01:48.099Z,100.00
2022-11-23T10:04:20.295Z,100.00
2022-11-23T10:07:00.126Z,100.00
2022-11-23T10:10:09.397Z,100.00
2022-11-23T10:13:09.633Z,100.00
2022-11-23T10:15:59.691Z,100.00
2022-11-23T10:18:58.627Z,100.00
2022-11-23T10:22:02.288Z,100.00
2022-11-23T10:24:37.647Z,100.00
2022-11-23T10:27:16.919Z,100.00
2022-11-23T10:29:44.274Z,100.00
2022-11-23T10:32:42.260Z,100.00
2022-11-23T10:35:29.546Z,100.00
2022-11-23T10:38:19.304Z,100.00
2022-11-23T10:41:13.743Z,100.00
2022-11-23T10:44:09.318Z,100.00
2022-11-23T10:46:37.290Z,100.00
2022-11-23T10:49:22.121Z,100.00
2022-11-23T10:52:03.520Z,100.00
2022-11-23T10:54:45.306Z,100.00
2022-11-23T10:57:43.307Z,100.00
2022-11-23T11:00:13.269Z,100.00
2022-11-23T11:02:55.476Z,100.00
2022-11-23T11:08:36.595Z,100.00
2022-11-23T11:11:25.513Z,99.36
2022-11-23T11:14:02.425Z,100.00
2022-11-23T11:16:33.909Z,100.00
2022-11-23T11:19:31.431Z,100.00
2022-11-23T11:22:00.657Z,100.00
2022-11-23T11:24:43.378Z,100.00
2022-11-23T11:27:18.129Z,99.62
2022-11-23T11:29:44.943Z,99.05
2022-11-23T11:32:26.835Z,99.70
2022-11-23T11:35:38.984Z,99.90
2022-11-23T11:38:33.154Z,99.55
2022-11-23T11:41:08.427Z,99.78
2022-11-23T11:43:45.738Z,98.48
2022-11-23T11:46:30.368Z,97.66
2022-11-23T11:49:19.083Z,99.36
2022-11-23T11:52:19.132Z,97.97
2022-11-23T11:54:56.634Z,98.51
2022-11-23T11:57:42.312Z,98.08
2022-11-23T12:00:20.860Z,98.39
2022-11-23T12:03:42.992Z,98.31
2022-11-23T12:06:36.352Z,99.32
2022-11-23T12:09:12.999Z,99.05
2022-11-23T12:11:39.996Z,98.86
2022-11-23T12:14:12.067Z,97.23
2022-11-23T12:20:25.003Z,99.06
2022-11-23T12:23:07.092Z,98.99
2022-11-23T12:26:19.606Z,97.81
2022-11-23T12:29:25.184Z,95.97
2022-11-23T12:32:55.298Z,97.18
2022-11-23T12:39:47.237Z,98.08
2022-11-23T12:42:54.985Z,100.00
2022-11-23T12:45:42.848Z,100.00
2022-11-23T12:48:28.432Z,98.86
2022-11-23T12:51:16.626Z,98.24
2022-11-23T12:54:01.370Z,97.54
2022-11-23T12:56:47.124Z,98.57
2022-11-23T12:59:15.230Z,98.99
2022-11-23T13:01:57.366Z,99.83
2022-11-23T13:05:06.131Z,99.30
2022-11-23T13:08:03.171Z,99.08
2022-11-23T13:11:00.204Z,98.19
2022-11-23T13:14:11.712Z,98.09
2022-11-23T13:17:14.807Z,98.90
2022-11-23T13:20:20.992Z,97.75
2022-11-23T13:22:49.239Z,98.67
2022-11-23T13:25:29.656Z,99.87
2022-11-23T13:28:01.367Z,98.60
2022-11-23T13:31:07.287Z,97.79
2022-11-23T13:33:37.419Z,99.07
2022-11-23T13:36:10.397Z,99.88
2022-11-23T13:38:41.608Z,99.72
2022-11-23T13:41:39.716Z,100.00
2022-11-23T13:44:32.021Z,100.00
2022-11-23T13:47:19.083Z,100.00
2022-11-23T13:49:47.246Z,100.00
2022-11-23T13:52:23.320Z,100.00
2022-11-23T13:55:22.662Z,100.00
2022-11-23T13:58:23.637Z,100.00
2022-11-23T14:00:59.052Z,100.00
2022-11-23T14:03:48.501Z,100.00
2022-11-23T14:06:46.102Z,100.00
2022-11-23T14:09:32.727Z,100.00
2022-11-23T14:12:14.763Z,99.80
2022-11-23T14:15:15.957Z,100.00
2022-11-23T14:18:25.319Z,100.00
2022-11-23T14:21:03.378Z,100.00
2022-11-23T14:24:16.415Z,100.00
2022-11-23T14:27:45.710Z,100.00
2022-11-23T14:30:45.881Z,100.00
2022-11-23T14:33:29.385Z,100.00
2022-11-23T14:36:18.209Z,100.00
2022-11-23T14:39:08.070Z,100.00
2022-11-23T14:41:41.178Z,100.00
2022-11-23T14:44:14.788Z,100.00
2022-11-23T14:47:04.032Z,100.00
2022-11-23T14:49:31.056Z,100.00
2022-11-23T14:51:59.576Z,100.00
2022-11-23T14:54:27.881Z,100.00
2022-11-23T14:57:00.685Z,100.00
2022-11-23T14:59:39.796Z,100.00
2022-11-23T15:02:22.030Z,100.00
2022-11-23T15:05:07.256Z,100.00
2022-11-23T15:08:00.168Z,100.00
2022-11-23T15:10:46.088Z,100.00
2022-11-23T15:13:29.171Z,100.00
2022-11-23T15:15:58.721Z,100.00
2022-11-23T15:18:39.171Z,100.00
2022-11-23T15:21:26.598Z,100.00
2022-11-23T15:23:58.529Z,100.00
2022-11-23T15:29:38.508Z,100.00
2022-11-23T15:32:32.164Z,100.00
2022-11-23T15:35:06.831Z,100.00
2022-11-23T15:37:48.475Z,100.00
2022-11-23T15:40:18.779Z,100.00
2022-11-23T15:42:50.988Z,100.00
2022-11-23T15:46:05.052Z,100.00
2022-11-23T15:48:35.630Z,100.00
2022-11-23T15:51:09.069Z,100.00
2022-11-23T15:53:51.760Z,100.00
2022-11-23T15:56:33.524Z,100.00
2022-11-23T15:59:04.987Z,100.00
2022-11-23T16:01:32.143Z,100.00
2022-11-23T16:04:03.908Z,100.00
2022-11-23T16:06:48.261Z,100.00
2022-11-23T16:09:52.739Z,100.00
2022-11-23T16:12:27.204Z,100.00
2022-11-23T16:14:57.172Z,100.00
2022-11-23T16:17:28.109Z,100.00
2022-11-23T16:19:58.243Z,100.00
2022-11-23T16:22:30.250Z,100.00
2022-11-23T16:25:26.581Z,100.00
2022-11-23T16:28:25.763Z,100.00
2022-11-23T16:30:52.798Z,100.00
2022-11-23T16:33:20.833Z,100.00
2022-11-23T16:35:48.197Z,100.00
2022-11-23T16:38:15.217Z,100.00
2022-11-23T16:40:44.053Z,100.00
2022-11-23T16:43:12.865Z,100.00
2022-11-23T16:45:42.604Z,100.00
2022-11-23T16:48:25.268Z,100.00
2022-11-23T16:50:57.455Z,100.00
2022-11-23T16:53:30.180Z,100.00
2022-11-23T16:55:58.520Z,100.00
2022-11-23T16:58:29.520Z,100.00
2022-11-23T17:00:56.523Z,100.00
2022-11-23T17:03:24.442Z,100.00
2022-11-23T17:05:52.513Z,100.00
2022-11-23T17:08:23.660Z,100.00
2022-11-23T17:10:51.651Z,100.00
2022-11-23T17:13:29.372Z,100.00
2022-11-23T17:15:56.490Z,100.00
2022-11-23T17:18:23.417Z,100.00
2022-11-23T17:20:50.373Z,100.00
2022-11-23T17:23:17.330Z,100.00
2022-11-23T17:25:44.326Z,100.00
2022-11-23T17:28:17.095Z,100.00
2022-11-23T17:30:44.178Z,100.00
2022-11-23T17:33:12.180Z,100.00
2022-11-23T17:35:40.244Z,100.00
2022-11-23T17:38:12.247Z,100.00
2022-11-23T17:40:39.295Z,100.00
2022-11-23T17:43:06.236Z,100.00
2022-11-23T17:45:34.024Z,100.00
2022-11-23T17:48:03.596Z,100.00
2022-11-23T17:50:30.790Z,100.00
2022-11-23T17:52:57.768Z,100.00
2022-11-23T17:55:24.926Z,100.00
2022-11-23T17:57:51.930Z,100.00
2022-11-23T18:00:22.423Z,100.00
2022-11-23T18:02:49.684Z,100.00
2022-11-23T18:05:21.595Z,100.00
2022-11-23T18:07:50.472Z,100.00
2022-11-23T18:10:18.275Z,100.00
2022-11-23T18:12:46.584Z,100.00
2022-11-23T18:15:14.316Z,100.00
2022-11-23T18:17:41.793Z,100.00
2022-11-23T18:20:10.238Z,100.00
2022-11-23T18:22:37.407Z,100.00
2022-11-23T18:25:04.690Z,100.00
2022-11-23T18:27:31.920Z,100.00
2022-11-23T18:29:58.837Z,100.00
2022-11-23T18:32:25.791Z,100.00
2022-11-23T18:34:52.959Z,100.00
2022-11-23T18:37:19.929Z,100.00
2022-11-23T18:39:46.887Z,100.00
2022-11-23T18:42:14.345Z,100.00
2022-11-23T18:44:43.513Z,100.00
2022-11-23T18:47:10.509Z,100.00
2022-11-23T18:49:37.462Z,100.00
2022-11-23T18:52:04.556Z,100.00
2022-11-23T18:54:31.564Z,100.00
2022-11-23T18:56:58.475Z,100.00
2022-11-23T18:59:56.301Z,100.00
2022-11-23T19:02:13.241Z,100.00
2022-11-23T19:04:40.321Z,100.00
2022-11-23T19:07:07.619Z,100.00
2022-11-23T19:09:35.139Z,100.00
2022-11-23T19:12:02.576Z,100.00
2022-11-23T19:14:29.490Z,100.00
2022-11-23T19:16:56.452Z,100.00
2022-11-23T19:19:23.354Z,100.00
2022-11-23T19:21:50.337Z,100.00
2022-11-23T19:24:17.293Z,100.00
2022-11-23T19:26:44.212Z,100.00
2022-11-23T19:29:11.638Z,100.00
2022-11-23T19:31:38.643Z,100.00
2022-11-23T19:34:06.422Z,100.00
2022-11-23T19:36:36.571Z,100.00
2022-11-23T19:39:08.360Z,100.00
2022-11-23T19:41:35.280Z,100.00
2022-11-23T19:44:02.455Z,100.00
2022-11-23T19:46:31.177Z,100.00
2022-11-23T19:48:58.732Z,100.00
2022-11-23T19:51:27.463Z,100.00
2022-11-23T19:53:57.615Z,100.00
2022-11-23T19:56:28.895Z,100.00
2022-11-23T19:58:59.376Z,100.00
2022-11-23T20:01:31.781Z,100.00
2022-11-23T20:04:08.319Z,100.00
2022-11-23T20:06:39.238Z,100.00
2022-11-23T20:09:09.416Z,100.00
2022-11-23T20:11:38.965Z,100.00
2022-11-23T20:14:06.273Z,100.00
2022-11-23T20:16:33.498Z,100.00
2022-11-23T20:19:06.435Z,100.00
2022-11-23T20:21:34.708Z,100.00
2022-11-23T20:24:13.825Z,100.00
2022-11-23T20:26:42.347Z,100.00
2022-11-23T20:29:10.080Z,100.00
2022-11-23T20:31:38.172Z,100.00
2022-11-23T20:34:08.133Z,100.00
2022-11-23T20:36:37.607Z,100.00
2022-11-23T20:39:09.723Z,100.00
2022-11-23T20:41:37.722Z,100.00
2022-11-23T20:44:12.690Z,100.00
2022-11-23T20:49:27.315Z,100.00
2022-11-23T20:51:54.269Z,100.00
2022-11-23T20:54:21.262Z,100.00
2022-11-23T20:56:51.236Z,100.00
2022-11-23T20:59:19.746Z,100.00
2022-11-23T21:01:46.927Z,100.00
2022-11-23T21:04:13.904Z,100.00
2022-11-23T21:06:41.045Z,100.00
2022-11-23T21:09:10.265Z,100.00
2022-11-23T21:11:56.112Z,100.00
2022-11-23T21:14:27.413Z,100.00
2022-11-23T21:17:01.228Z,100.00
2022-11-23T21:19:34.595Z,100.00
2022-11-23T21:22:08.930Z,100.00
2022-11-23T21:24:36.677Z,100.00
2022-11-23T21:27:11.958Z,100.00
2022-11-23T21:29:38.916Z,100.00
2022-11-23T21:32:06.089Z,100.00
2022-11-23T21:34:33.759Z,100.00
2022-11-23T21:37:01.260Z,100.00
2022-11-23T21:39:31.449Z,100.00
2022-11-23T21:41:58.837Z,100.00
2022-11-23T21:44:26.460Z,100.00
2022-11-23T21:46:53.608Z,100.00
2022-11-23T21:49:20.769Z,100.00
2022-11-23T21:51:48.140Z,100.00
2022-11-23T21:54:15.992Z,100.00
2022-11-23T21:56:45.296Z,100.00
2022-11-23T21:59:13.262Z,100.00
2022-11-23T22:01:40.999Z,100.00
2022-11-23T22:04:15.376Z,100.00
2022-11-23T22:06:45.454Z,100.00
2022-11-23T22:09:13.391Z,100.00
2022-11-23T22:11:43.267Z,100.00
2022-11-23T22:14:16.524Z,100.00
2022-11-23T22:16:54.431Z,100.00
2022-11-23T22:19:21.539Z,100.00
2022-11-23T22:21:48.667Z,100.00
2022-11-23T22:24:19.077Z,100.00
2022-11-23T22:26:47.788Z,100.00
2022-11-23T22:29:15.429Z,100.00
2022-11-23T22:31:43.905Z,100.00
2022-11-23T22:34:13.571Z,100.00
2022-11-23T22:36:41.185Z,100.00
2022-11-23T22:39:08.625Z,100.00
2022-11-23T22:41:37.211Z,100.00
2022-11-23T22:44:07.849Z,100.00
2022-11-23T22:46:35.840Z,100.00
2022-11-23T22:49:03.162Z,100.00
2022-11-23T22:51:30.407Z,100.00
2022-11-23T22:53:59.647Z,100.00
2022-11-23T22:56:28.883Z,100.00
2022-11-23T22:58:56.212Z,100.00
2022-11-23T23:01:27.564Z,100.00
2022-11-23T23:03:56.898Z,100.00
2022-11-23T23:06:28.590Z,100.00
2022-11-23T23:08:58.694Z,100.00
2022-11-23T23:11:28.519Z,100.00
2022-11-23T23:13:56.622Z,100.00
2022-11-23T23:16:24.025Z,100.00
2022-11-23T23:18:51.661Z,100.00
2022-11-23T23:21:21.780Z,100.00
2022-11-23T23:23:51.887Z,100.00
2022-11-23T23:26:22.965Z,100.00
2022-11-23T23:28:54.557Z,100.00
2022-11-23T23:31:22.592Z,100.00
2022-11-23T23:33:49.848Z,100.00
2022-11-23T23:36:19.944Z,100.00
2022-11-23T23:38:47.164Z,100.00
2022-11-23T23:41:14.958Z,100.00
2022-11-23T23:43:43.538Z,100.00
2022-11-23T23:46:13.763Z,100.00
2022-11-23T23:48:41.913Z,100.00
2022-11-23T23:51:16.101Z,100.00
2022-11-23T23:53:44.122Z,100.00
2022-11-23T23:56:18.695Z,100.00
2022-11-23T23:58:46.099Z,100.00
